Flight Track Log - Related Links

Times and Time Zones

All times are in EDT time to prevent confusion due to time zone crossing. See the GJS3710 flight status page for this flight to view local times or setup timezone preferences in your user account.

Time Position Orientation Groundspeed Altitude Reporting Facility
EDT Latitude Longitude Course Direction KTS MPH feet Rate Location/Type
Sun 10:08:49 AM 42.0000 -87.8833 90° East 154 177 1,500  Level Chicago TRACON
Sun 10:09:49 AM 42.0000 -87.8167 90° East 189 217 3,300 2,105 Climbing Chicago TRACON
Sun 10:10:43 AM 42.0167 -87.7500 71° East 212 244 5,500 2,200 Climbing Chicago TRACON
Sun 10:12:19 AM 41.9994 -87.6083 99° East 262 302 8,800 2,203 Climbing Chicago Center
Sun 10:13:21 AM 41.9897 -87.5022 97° East 283 326 11,300 1,790 Climbing Chicago Center
Sun 10:14:23 AM 41.9792 -87.3886 97° East 304 350 12,500 1,306 Climbing Chicago Center
Sun 10:15:25 AM 41.9650 -87.2517 98° East 353 406 14,000 1,694 Climbing Chicago Center
Sun 10:16:27 AM 41.9506 -87.1106 98° East 376 433 16,000 2,081 Climbing Chicago Center
Sun 10:17:29 AM 41.9472 -86.9386 91° East 384 442 18,300 2,032 Climbing Chicago Center
Sun 10:18:31 AM 41.9500 -86.7972 88° East 381 438 20,200 1,839 Climbing Chicago Center
Sun 10:19:33 AM 41.9506 -86.6503 90° East 386 444 22,100 1,645 Climbing Chicago Center
Sun 10:20:35 AM 41.9319 -86.5069 100° East 391 450 23,600 1,210 Climbing Chicago Center
Sun 10:21:37 AM 41.9103 -86.3592 101° East 402 463 24,600 1,016 Climbing Chicago Center
Sun 10:22:39 AM 41.8875 -86.2053 101° East 419 482 25,700 1,152 Climbing Chicago Center
Sun 10:23:42 AM 41.8650 -86.0508 101° East 423 487 27,000 1,296 Climbing Chicago Center
Sun 10:24:44 AM 41.8361 -85.8617 102° East 431 496 28,400 1,210 Climbing Chicago Center
Sun 10:25:46 AM 41.8125 -85.7044 101° East 431 496 29,500 1,016 Climbing Chicago Center
Sun 10:26:48 AM 41.7886 -85.5431 101° East 437 503 30,500 1,016 Climbing Chicago Center
Sun 10:27:50 AM 41.7642 -85.3794 101° East 441 507 31,600 968 Climbing Chicago Center
Sun 10:28:52 AM 41.7378 -85.2153 102° East 441 507 32,500 919 Climbing Chicago Center
Sun 10:29:54 AM 41.7125 -85.0522 102° East 445 512 33,500 919 Climbing Chicago Center
Sun 10:30:56 AM 41.6867 -84.8922 102° East 441 507 34,400 726 Climbing Chicago Center
Sun 10:31:58 AM 41.6606 -84.7331 102° East 438 504 35,000 343 Climbing Chicago Center
Sun 10:32:41 AM 41.6392 -84.6039 102° East 440 506 35,000  Level Cleveland Center
Sun 10:33:41 AM 41.6117 -84.4356 102° East 445 512 35,000  Level Cleveland Center
Sun 10:34:41 AM 41.5858 -84.2647 101° East 452 520 35,000  Level Cleveland Center
Sun 10:35:41 AM 41.5478 -84.0847 106° East 457 526 35,000  Level Cleveland Center
Sun 10:36:41 AM 41.5194 -83.9169 103° East 457 526 35,000  Level Cleveland Center
Sun 10:37:41 AM 41.4908 -83.7489 103° East 457 526 35,000  Level Cleveland Center
Sun 10:38:41 AM 41.4600 -83.5783 104° East 457 526 35,000  Level Cleveland Center
Sun 10:39:41 AM 41.4311 -83.4053 102° East 462 532 35,000  Level Cleveland Center
Sun 10:40:41 AM 41.3997 -83.2350 104° East 467 537 35,000  Level Cleveland Center
Sun 10:41:41 AM 41.3722 -83.0625 102° East 473 544 35,000  Level Cleveland Center
Sun 10:42:41 AM 41.3425 -82.8869 103° East 478 550 35,000  Level Cleveland Center
Sun 10:43:41 AM 41.3086 -82.7117 104° East 473 544 35,000  Level Cleveland Center
Sun 10:44:41 AM 41.2783 -82.5394 103° East 473 544 35,000  Level Cleveland Center
Sun 10:45:41 AM 41.2456 -82.3644 104° East 473 544 35,000  Level Cleveland Center
Sun 10:46:41 AM 41.2128 -82.1950 104° East 473 544 35,000  Level Cleveland Center
Sun 10:47:41 AM 41.1839 -82.0150 102° East 479 551 35,000  Level Cleveland Center
Sun 10:48:41 AM 41.1506 -81.8406 104° East 479 551 35,000  Level Cleveland Center
Sun 10:49:41 AM 41.1125 -81.6689 106° East 484 557 35,000  Level Cleveland Center
Sun 10:50:41 AM 41.0786 -81.4950 104° East 484 557 35,000  Level Cleveland Center
Sun 10:51:41 AM 41.0467 -81.3208 104° East 479 551 35,000  Level Cleveland Center
Sun 10:52:41 AM 41.0142 -81.1500 104° East 472 543 35,000  Level Cleveland Center
Sun 10:53:41 AM 40.9858 -80.9958 104° East 479 551 35,000  Level Cleveland Center
Sun 10:54:41 AM 40.9528 -80.8250 104° East 474 545 35,000  Level Cleveland Center
Sun 10:55:41 AM 40.9178 -80.6544 105° East 474 545 35,000  Level Cleveland Center
Sun 10:56:41 AM 40.8822 -80.4814 105° East 474 545 35,000  Level Cleveland Center
Sun 10:57:41 AM 40.8444 -80.3142 107° East 474 545 35,000  Level Cleveland Center
Sun 10:58:41 AM 40.8000 -80.1469 109° East 474 545 35,000  Level Cleveland Center
Sun 10:59:41 AM 40.7472 -79.9856 113° Southeast 474 545 35,000  Level Cleveland Center
Sun 11:00:41 AM 40.6881 -79.8300 117° Southeast 474 545 35,000  Level Cleveland Center
Sun 11:01:41 AM 40.6306 -79.6719 116° Southeast 474 545 35,000 -150 Level Cleveland Center
Sun 11:02:41 AM 40.5731 -79.5169 116° Southeast 474 545 34,700 -650 Descending Cleveland Center
Sun 11:03:41 AM 40.5317 -79.3456 108° East 474 545 33,700 -850 Descending Cleveland Center
Sun 11:04:41 AM 40.4981 -79.1525 103° East 480 552 33,000 -850 Descending Cleveland Center
Sun 11:05:41 AM 40.4708 -78.9783 102° East 485 558 32,000 -1,150 Descending Cleveland Center
Sun 11:06:41 AM 40.4453 -78.8017 101° East 491 565 30,700 -1,400 Descending Cleveland Center
Sun 11:07:41 AM 40.4153 -78.6306 103° East 486 559 29,200 -1,400 Descending Cleveland Center
Sun 11:08:41 AM 40.3914 -78.4678 101° East 474 545 27,900 -1,430 Descending Cleveland Center
Sun 11:10:12 AM 40.3556 -78.2239 101° East 457 526 25,600 -1,152 Descending New York Center
Sun 11:11:12 AM 40.3300 -78.0683 102° East 452 520 25,000 -303 Descending New York Center
Sun 11:12:11 AM 40.3144 -77.9117 97° East 439 505 25,000 -50 Level New York Center
Sun 11:13:12 AM 40.3114 -77.7506 91° East 439 505 24,900 -793 Descending New York Center
Sun 11:14:12 AM 40.3103 -77.5925 90° East 439 505 23,400 -1,500 Descending New York Center
Sun 11:15:12 AM 40.3086 -77.4400 91° East 429 494 21,900 -1,500 Descending New York Center
Sun 11:16:12 AM 40.3042 -77.2950 92° East 412 474 20,400 -950 Descending New York Center
Sun 11:17:12 AM 40.3008 -77.1642 92° East 401 461 20,000 -500 Descending New York Center
Sun 11:18:12 AM 40.2897 -77.0242 96° East 401 461 19,400 -1,000 Descending New York Center
Sun 11:19:12 AM 40.2592 -76.8908 107° East 384 442 18,000 -1,400 Descending New York Center
Sun 11:20:12 AM 40.2303 -76.7606 106° East 378 435 16,600 -1,550 Descending New York Center
Sun 11:21:12 AM 40.1978 -76.6192 107° East 371 427 14,900 -1,600 Descending New York Center
Sun 11:22:12 AM 40.1683 -76.4997 108° East 355 409 13,400 -1,450 Descending New York Center
Sun 11:23:12 AM 40.1408 -76.3753 106° East 355 409 12,000 -1,450 Descending New York Center
Sun 11:24:12 AM 40.1189 -76.2678 105° East 347 399 10,500 -1,000 Descending New York Center
Sun 11:25:12 AM 40.1106 -76.1314 95° East 342 394 10,000 -650 Descending New York Center
Sun 11:26:12 AM 40.1008 -76.0219 97° East 314 361 9,200 -1,050 Descending New York Center
Sun 11:27:12 AM 40.0969 -75.9214 93° East 284 327 7,900 -1,500 Descending New York Center
Sun 11:28:12 AM 40.0778 -75.8331 106° East 262 302 6,200 -950 Descending New York Center
Sun 11:29:12 AM 40.0261 -75.7750 139° Southeast 254 292 6,000 -650 Descending New York Center
Sun 11:30:12 AM 39.9644 -75.7028 138° Southeast 270 311 4,900 -1,200 Descending New York Center
Sun 11:31:12 AM 39.9147 -75.6481 140° Southeast 270 311 3,600 -950 Descending New York Center
Sun 11:32:12 AM 39.8608 -75.5875 139° Southeast 247 284 3,000 -400 Descending New York Center
Sun 11:32:42 AM 39.8333 -75.5667 150° Southeast 211 243 3,000  Level Philadelphia TRACON
Sun 11:33:48 AM 39.8167 -75.4833 105° East 206 237 3,000 -286 Level Philadelphia TRACON
Sun 11:34:48 AM 39.8333 -75.4167 72° East 182 209 2,400 -800 Descending Philadelphia TRACON
Sun 11:35:48 AM 39.8500 -75.3667 67° East 163 188 1,400 -850 Descending Philadelphia TRACON
Sun 11:36:48 AM 39.8500 -75.3167 90° East 134 154 700 1,941 Descending Philadelphia TRACON
Sun 11:39:12 AM 39.8822 -75.2019 70° East 141 162 8,000 3,042 Climbing New York Center

Login

Don't have an account? Register now (free) for customized features, flight alerts, and more!